sensor_id;sensor_type;location;lat;lon;timestamp;pressure;altitude;pressure_sealevel;temperature;humidity
65553;BME280;52465;51.560;14.368;2023-03-16T00:01:03;100803.47;;;8.92;67.11
65553;BME280;52465;51.560;14.368;2023-03-16T00:03:29;100797.66;;;8.89;66.84
65553;BME280;52465;51.560;14.368;2023-03-16T00:05:55;100793.66;;;8.85;67.40
65553;BME280;52465;51.560;14.368;2023-03-16T00:08:20;100801.47;;;8.85;66.88
65553;BME280;52465;51.560;14.368;2023-03-16T00:10:47;100804.53;;;8.90;66.76
65553;BME280;52465;51.560;14.368;2023-03-16T00:13:26;100795.06;;;8.89;67.07
65553;BME280;52465;51.560;14.368;2023-03-16T00:15:53;100798.06;;;8.84;66.71
65553;BME280;52465;51.560;14.368;2023-03-16T00:18:19;100798.19;;;8.83;67.11
65553;BME280;52465;51.560;14.368;2023-03-16T00:20:52;100774.50;;;8.65;67.16
65553;BME280;52465;51.560;14.368;2023-03-16T00:23:38;100808.34;;;8.86;66.92
65553;BME280;52465;51.560;14.368;2023-03-16T00:26:06;100812.75;;;8.85;67.16
65553;BME280;52465;51.560;14.368;2023-03-16T00:28:35;100817.16;;;8.85;66.62
65553;BME280;52465;51.560;14.368;2023-03-16T00:31:03;100810.28;;;8.84;66.40
65553;BME280;52465;51.560;14.368;2023-03-16T00:33:30;100767.19;;;8.59;67.41
65553;BME280;52465;51.560;14.368;2023-03-16T00:36:01;100806.03;;;8.83;66.69
65553;BME280;52465;51.560;14.368;2023-03-16T00:38:30;100777.22;;;8.63;66.56
65553;BME280;52465;51.560;14.368;2023-03-16T00:40:56;100794.97;;;8.69;67.24
65553;BME280;52465;51.560;14.368;2023-03-16T00:43:21;100798.00;;;8.74;67.62
65553;BME280;52465;51.560;14.368;2023-03-16T00:45:47;100804.75;;;8.77;67.16
65553;BME280;52465;51.560;14.368;2023-03-16T00:48:15;100695.91;;;8.07;66.96
65553;BME280;52465;51.560;14.368;2023-03-16T00:50:42;100805.97;;;8.73;67.07
65553;BME280;52465;51.560;14.368;2023-03-16T00:53:08;100822.22;;;8.77;66.78
65553;BME280;52465;51.560;14.368;2023-03-16T00:55:33;100823.88;;;8.78;67.30
65553;BME280;52465;51.560;14.368;2023-03-16T00:57:58;100818.88;;;8.74;67.44
65553;BME280;52465;51.560;14.368;2023-03-16T01:00:24;100795.31;;;8.55;66.78
65553;BME280;52465;51.560;14.368;2023-03-16T01:02:53;100812.09;;;8.62;67.01
65553;BME280;52465;51.560;14.368;2023-03-16T01:05:19;100829.34;;;8.74;66.66
65553;BME280;52465;51.560;14.368;2023-03-16T01:07:44;100821.78;;;8.71;67.04
65553;BME280;52465;51.560;14.368;2023-03-16T01:10:14;100820.66;;;8.64;67.13
65553;BME280;52465;51.560;14.368;2023-03-16T01:12:39;100796.38;;;8.43;67.15
65553;BME280;52465;51.560;14.368;2023-03-16T01:15:05;100834.69;;;8.73;67.16
65553;BME280;52465;51.560;14.368;2023-03-16T01:17:31;100825.16;;;8.62;67.48
65553;BME280;52465;51.560;14.368;2023-03-16T01:19:59;100763.84;;;8.26;66.88
65553;BME280;52465;51.560;14.368;2023-03-16T01:22:25;100833.28;;;8.69;67.18
65553;BME280;52465;51.560;14.368;2023-03-16T01:24:51;100812.06;;;8.53;67.22
65553;BME280;52465;51.560;14.368;2023-03-16T01:27:16;100830.75;;;8.58;67.56
65553;BME280;52465;51.560;14.368;2023-03-16T01:29:42;100843.03;;;8.67;67.16
65553;BME280;52465;51.560;14.368;2023-03-16T01:32:11;100844.84;;;8.66;67.21
65553;BME280;52465;51.560;14.368;2023-03-16T01:34:37;100852.81;;;8.65;66.86
65553;BME280;52465;51.560;14.368;2023-03-16T01:37:03;100846.75;;;8.64;67.52
65553;BME280;52465;51.560;14.368;2023-03-16T01:39:28;100833.25;;;8.59;67.11
65553;BME280;52465;51.560;14.368;2023-03-16T01:41:54;100837.25;;;8.63;67.28
65553;BME280;52465;51.560;14.368;2023-03-16T01:44:25;100841.53;;;8.64;66.80
65553;BME280;52465;51.560;14.368;2023-03-16T01:46:55;100832.31;;;8.60;66.86
65553;BME280;52465;51.560;14.368;2023-03-16T01:51:59;100845.34;;;8.60;67.20
65553;BME280;52465;51.560;14.368;2023-03-16T01:54:36;100824.09;;;8.44;67.37
65553;BME280;52465;51.560;14.368;2023-03-16T01:57:11;100805.66;;;8.36;67.17
65553;BME280;52465;51.560;14.368;2023-03-16T01:59:46;100840.28;;;8.59;67.06
65553;BME280;52465;51.560;14.368;2023-03-16T02:02:31;100843.81;;;8.58;66.86
65553;BME280;52465;51.560;14.368;2023-03-16T02:05:07;100825.63;;;8.46;67.44
65553;BME280;52465;51.560;14.368;2023-03-16T02:07:42;100849.16;;;8.56;67.20
65553;BME280;52465;51.560;14.368;2023-03-16T02:10:11;100821.63;;;8.42;67.08
65553;BME280;52465;51.560;14.368;2023-03-16T02:12:41;100804.25;;;8.32;67.12
65553;BME280;52465;51.560;14.368;2023-03-16T02:15:11;100836.41;;;8.53;67.08
65553;BME280;52465;51.560;14.368;2023-03-16T02:17:42;100804.94;;;8.34;67.21
65553;BME280;52465;51.560;14.368;2023-03-16T02:22:53;100801.06;;;8.28;67.25
65553;BME280;52465;51.560;14.368;2023-03-16T02:25:25;100810.00;;;8.35;67.15
65553;BME280;52465;51.560;14.368;2023-03-16T02:28:07;100826.84;;;8.42;67.23
65553;BME280;52465;51.560;14.368;2023-03-16T02:30:56;100823.84;;;8.47;67.58
65553;BME280;52465;51.560;14.368;2023-03-16T02:33:23;100757.38;;;8.00;67.20
65553;BME280;52465;51.560;14.368;2023-03-16T02:35:52;100818.34;;;8.29;66.90
65553;BME280;52465;51.560;14.368;2023-03-16T02:38:18;100846.38;;;8.48;67.26
65553;BME280;52465;51.560;14.368;2023-03-16T02:40:45;100833.00;;;8.41;67.27
65553;BME280;52465;51.560;14.368;2023-03-16T02:43:21;100850.06;;;8.45;67.67
65553;BME280;52465;51.560;14.368;2023-03-16T02:45:53;100850.88;;;8.46;67.31
65553;BME280;52465;51.560;14.368;2023-03-16T02:48:27;100737.47;;;7.78;67.47
65553;BME280;52465;51.560;14.368;2023-03-16T02:50:59;100831.84;;;8.34;67.17
65553;BME280;52465;51.560;14.368;2023-03-16T02:53:25;100829.22;;;8.34;66.88
65553;BME280;52465;51.560;14.368;2023-03-16T02:55:50;100845.94;;;8.43;66.95
65553;BME280;52465;51.560;14.368;2023-03-16T02:58:16;100844.28;;;8.42;67.61
65553;BME280;52465;51.560;14.368;2023-03-16T03:00:42;100802.81;;;8.07;67.49
65553;BME280;52465;51.560;14.368;2023-03-16T03:03:08;100858.28;;;8.41;66.94
65553;BME280;52465;51.560;14.368;2023-03-16T03:05:34;100847.38;;;8.36;67.51
65553;BME280;52465;51.560;14.368;2023-03-16T03:07:59;100809.44;;;8.11;67.62
65553;BME280;52465;51.560;14.368;2023-03-16T03:10:25;100824.00;;;8.13;67.30
65553;BME280;52465;51.560;14.368;2023-03-16T03:12:51;100836.50;;;8.31;66.85
65553;BME280;52465;51.560;14.368;2023-03-16T03:18:06;100855.94;;;8.38;66.94
65553;BME280;52465;51.560;14.368;2023-03-16T03:20:31;100747.34;;;7.63;67.17
65553;BME280;52465;51.560;14.368;2023-03-16T03:22:57;100860.44;;;8.36;67.07
65553;BME280;52465;51.560;14.368;2023-03-16T03:25:23;100856.13;;;8.35;67.10
65553;BME280;52465;51.560;14.368;2023-03-16T03:27:49;100857.38;;;8.31;67.40
65553;BME280;52465;51.560;14.368;2023-03-16T03:30:18;100782.53;;;7.89;67.38
65553;BME280;52465;51.560;14.368;2023-03-16T03:33:02;100819.56;;;8.04;67.55
65553;BME280;52465;51.560;14.368;2023-03-16T03:35:28;100868.50;;;8.33;67.18
65553;BME280;52465;51.560;14.368;2023-03-16T03:37:54;100867.91;;;8.29;66.99
65553;BME280;52465;51.560;14.368;2023-03-16T03:40:20;100879.06;;;8.31;67.06
65553;BME280;52465;51.560;14.368;2023-03-16T03:45:23;100854.75;;;8.10;67.59
65553;BME280;52465;51.560;14.368;2023-03-16T03:47:50;100883.56;;;8.29;67.39
65553;BME280;52465;51.560;14.368;2023-03-16T03:50:18;100862.75;;;8.18;66.63
65553;BME280;52465;51.560;14.368;2023-03-16T03:52:44;100877.66;;;8.27;67.36
65553;BME280;52465;51.560;14.368;2023-03-16T03:55:10;100866.31;;;8.17;67.62
65553;BME280;52465;51.560;14.368;2023-03-16T03:57:38;100877.06;;;8.23;67.19
65553;BME280;52465;51.560;14.368;2023-03-16T04:00:07;100872.34;;;8.17;67.21
65553;BME280;52465;51.560;14.368;2023-03-16T04:02:37;100879.94;;;8.20;67.02
65553;BME280;52465;51.560;14.368;2023-03-16T04:07:32;100868.09;;;8.16;67.53
65553;BME280;52465;51.560;14.368;2023-03-16T04:09:58;100882.41;;;8.22;67.18
65553;BME280;52465;51.560;14.368;2023-03-16T04:12:23;100865.31;;;8.08;67.79
65553;BME280;52465;51.560;14.368;2023-03-16T04:14:48;100866.13;;;8.09;67.79
65553;BME280;52465;51.560;14.368;2023-03-16T04:17:14;100861.75;;;8.09;67.38
65553;BME280;52465;51.560;14.368;2023-03-16T04:19:42;100882.66;;;8.19;67.71
65553;BME280;52465;51.560;14.368;2023-03-16T04:22:07;100885.25;;;8.19;67.13
65553;BME280;52465;51.560;14.368;2023-03-16T04:24:35;100885.41;;;8.17;67.38
65553;BME280;52465;51.560;14.368;2023-03-16T04:27:01;100824.88;;;7.82;67.47
65553;BME280;52465;51.560;14.368;2023-03-16T04:29:30;100881.16;;;8.16;67.79
65553;BME280;52465;51.560;14.368;2023-03-16T04:31:56;100880.31;;;8.16;67.06
65553;BME280;52465;51.560;14.368;2023-03-16T04:34:22;100871.44;;;8.07;67.57
65553;BME280;52465;51.560;14.368;2023-03-16T04:36:52;100884.00;;;8.13;67.31
65553;BME280;52465;51.560;14.368;2023-03-16T04:39:20;100891.81;;;8.13;67.40
65553;BME280;52465;51.560;14.368;2023-03-16T04:41:46;100890.78;;;8.05;67.19
65553;BME280;52465;51.560;14.368;2023-03-16T04:44:11;100890.44;;;8.09;67.67
65553;BME280;52465;51.560;14.368;2023-03-16T04:46:38;100893.84;;;8.10;67.27
65553;BME280;52465;51.560;14.368;2023-03-16T04:49:05;100897.97;;;8.12;67.15
65553;BME280;52465;51.560;14.368;2023-03-16T04:51:36;100894.91;;;8.07;67.73
65553;BME280;52465;51.560;14.368;2023-03-16T04:54:05;100889.50;;;7.99;67.69
65553;BME280;52465;51.560;14.368;2023-03-16T04:56:33;100901.81;;;8.08;67.16
65553;BME280;52465;51.560;14.368;2023-03-16T04:59:02;100901.81;;;8.08;66.79
65553;BME280;52465;51.560;14.368;2023-03-16T05:01:30;100893.53;;;8.03;67.47
65553;BME280;52465;51.560;14.368;2023-03-16T05:03:55;100906.19;;;8.08;67.94
65553;BME280;52465;51.560;14.368;2023-03-16T05:06:21;100894.47;;;8.02;66.70
65553;BME280;52465;51.560;14.368;2023-03-16T05:08:46;100888.69;;;7.99;66.90
65553;BME280;52465;51.560;14.368;2023-03-16T05:11:12;100879.59;;;7.93;66.85
65553;BME280;52465;51.560;14.368;2023-03-16T05:13:38;100883.38;;;7.89;67.29
65553;BME280;52465;51.560;14.368;2023-03-16T05:16:03;100861.75;;;7.77;67.25
65553;BME280;52465;51.560;14.368;2023-03-16T05:18:29;100858.53;;;7.74;67.47
65553;BME280;52465;51.560;14.368;2023-03-16T05:20:57;100913.56;;;8.03;67.49
65553;BME280;52465;51.560;14.368;2023-03-16T05:23:23;100912.72;;;8.02;67.83
65553;BME280;52465;51.560;14.368;2023-03-16T05:25:49;100908.47;;;8.01;67.74
65553;BME280;52465;51.560;14.368;2023-03-16T05:28:15;100905.66;;;7.93;66.90
65553;BME280;52465;51.560;14.368;2023-03-16T05:30:42;100904.81;;;7.92;67.78
65553;BME280;52465;51.560;14.368;2023-03-16T05:33:09;100882.72;;;7.76;67.21
65553;BME280;52465;51.560;14.368;2023-03-16T05:35:35;100892.78;;;7.80;68.01
65553;BME280;52465;51.560;14.368;2023-03-16T05:38:01;100924.47;;;7.96;67.17
65553;BME280;52465;51.560;14.368;2023-03-16T05:40:48;100819.59;;;7.29;67.71
65553;BME280;52465;51.560;14.368;2023-03-16T05:43:18;100917.75;;;7.83;67.70
65553;BME280;52465;51.560;14.368;2023-03-16T05:45:45;100937.63;;;7.95;68.07
65553;BME280;52465;51.560;14.368;2023-03-16T05:48:11;100939.41;;;7.94;67.50
65553;BME280;52465;51.560;14.368;2023-03-16T05:50:37;100902.84;;;7.74;67.62
65553;BME280;52465;51.560;14.368;2023-03-16T05:53:03;100933.50;;;7.92;67.23
65553;BME280;52465;51.560;14.368;2023-03-16T05:55:29;100935.28;;;7.92;67.62
65553;BME280;52465;51.560;14.368;2023-03-16T05:57:54;100921.88;;;7.85;67.56
65553;BME280;52465;51.560;14.368;2023-03-16T06:00:20;100852.59;;;7.39;67.33
65553;BME280;52465;51.560;14.368;2023-03-16T06:02:48;100887.25;;;7.62;67.55
65553;BME280;52465;51.560;14.368;2023-03-16T06:05:24;100946.66;;;7.91;67.71
65553;BME280;52465;51.560;14.368;2023-03-16T06:07:50;100938.13;;;7.89;67.83
65553;BME280;52465;51.560;14.368;2023-03-16T06:10:17;100933.75;;;7.89;67.82
65553;BME280;52465;51.560;14.368;2023-03-16T06:12:43;100938.94;;;7.89;67.67
65553;BME280;52465;51.560;14.368;2023-03-16T06:15:10;100892.13;;;7.56;67.23
65553;BME280;52465;51.560;14.368;2023-03-16T06:17:36;100826.94;;;7.12;67.59
65553;BME280;52465;51.560;14.368;2023-03-16T06:20:04;100940.72;;;7.89;67.41
65553;BME280;52465;51.560;14.368;2023-03-16T06:22:39;100929.97;;;7.82;66.79
65553;BME280;52465;51.560;14.368;2023-03-16T06:25:06;100945.25;;;7.87;67.57
65553;BME280;52465;51.560;14.368;2023-03-16T06:27:31;100892.47;;;7.51;67.53
65553;BME280;52465;51.560;14.368;2023-03-16T06:29:57;100935.06;;;7.84;67.41
65553;BME280;52465;51.560;14.368;2023-03-16T06:32:25;100877.94;;;7.49;67.71
65553;BME280;52465;51.560;14.368;2023-03-16T06:34:51;100941.09;;;7.84;67.61
65553;BME280;52465;51.560;14.368;2023-03-16T06:37:20;100949.88;;;7.83;67.58
65553;BME280;52465;51.560;14.368;2023-03-16T06:39:46;100957.81;;;7.82;67.61
65553;BME280;52465;51.560;14.368;2023-03-16T06:42:12;100919.47;;;7.61;67.03
65553;BME280;52465;51.560;14.368;2023-03-16T06:44:37;100949.66;;;7.75;67.59
65553;BME280;52465;51.560;14.368;2023-03-16T06:47:03;100949.28;;;7.80;67.62
65553;BME280;52465;51.560;14.368;2023-03-16T06:49:29;100958.88;;;7.79;67.11
65553;BME280;52465;51.560;14.368;2023-03-16T06:51:56;100951.44;;;7.75;67.33
65553;BME280;52465;51.560;14.368;2023-03-16T06:54:23;100930.50;;;7.65;67.98
65553;BME280;52465;51.560;14.368;2023-03-16T06:56:49;100903.38;;;7.45;67.62
65553;BME280;52465;51.560;14.368;2023-03-16T06:59:39;100959.97;;;7.77;67.84
65553;BME280;52465;51.560;14.368;2023-03-16T07:02:05;100956.28;;;7.68;67.61
65553;BME280;52465;51.560;14.368;2023-03-16T07:04:32;100968.72;;;7.76;67.82
65553;BME280;52465;51.560;14.368;2023-03-16T07:07:08;100969.56;;;7.76;67.18
65553;BME280;52465;51.560;14.368;2023-03-16T07:09:36;100963.53;;;7.76;67.06
65553;BME280;52465;51.560;14.368;2023-03-16T07:12:09;100967.91;;;7.75;66.97
65553;BME280;52465;51.560;14.368;2023-03-16T07:14:35;100948.13;;;7.61;67.61
65553;BME280;52465;51.560;14.368;2023-03-16T07:17:03;100959.63;;;7.70;67.18
65553;BME280;52465;51.560;14.368;2023-03-16T07:19:31;100973.13;;;7.75;67.98
65553;BME280;52465;51.560;14.368;2023-03-16T07:21:57;100962.31;;;7.68;67.56
65553;BME280;52465;51.560;14.368;2023-03-16T07:24:23;100960.69;;;7.67;68.03
65553;BME280;52465;51.560;14.368;2023-03-16T07:26:49;100979.16;;;7.76;67.56
65553;BME280;52465;51.560;14.368;2023-03-16T07:29:14;100930.03;;;7.49;67.34
65553;BME280;52465;51.560;14.368;2023-03-16T07:31:44;100977.50;;;7.75;67.29
65553;BME280;52465;51.560;14.368;2023-03-16T07:34:10;100958.56;;;7.61;67.42
65553;BME280;52465;51.560;14.368;2023-03-16T07:36:36;100948.63;;;7.55;67.49
65553;BME280;52465;51.560;14.368;2023-03-16T07:39:02;100963.63;;;7.63;67.54
65553;BME280;52465;51.560;14.368;2023-03-16T07:41:28;100974.44;;;7.69;67.80
65553;BME280;52465;51.560;14.368;2023-03-16T07:43:53;100993.16;;;7.75;67.63
65553;BME280;52465;51.560;14.368;2023-03-16T07:46:19;100975.13;;;7.60;67.62
65553;BME280;52465;51.560;14.368;2023-03-16T07:48:45;100951.00;;;7.47;66.96
65553;BME280;52465;51.560;14.368;2023-03-16T07:51:15;100990.63;;;7.73;67.41
65553;BME280;52465;51.560;14.368;2023-03-16T07:53:41;100983.56;;;7.64;67.54
65553;BME280;52465;51.560;14.368;2023-03-16T07:56:07;100998.34;;;7.75;67.71
65553;BME280;52465;51.560;14.368;2023-03-16T07:58:32;100976.22;;;7.58;67.06
65553;BME280;52465;51.560;14.368;2023-03-16T08:01:01;100932.41;;;7.29;67.73
65553;BME280;52465;51.560;14.368;2023-03-16T08:03:28;101005.31;;;7.74;66.87
65553;BME280;52465;51.560;14.368;2023-03-16T08:05:54;100995.50;;;7.66;67.03
65553;BME280;52465;51.560;14.368;2023-03-16T08:08:20;101008.31;;;7.69;67.60
65553;BME280;52465;51.560;14.368;2023-03-16T08:10:48;101017.44;;;7.75;67.50
65553;BME280;52465;51.560;14.368;2023-03-16T08:13:17;100998.94;;;7.67;67.55
65553;BME280;52465;51.560;14.368;2023-03-16T08:15:47;100978.34;;;7.53;67.48
65553;BME280;52465;51.560;14.368;2023-03-16T08:18:15;101014.00;;;7.75;67.42
65553;BME280;52465;51.560;14.368;2023-03-16T08:20:41;100997.75;;;7.71;67.57
65553;BME280;52465;51.560;14.368;2023-03-16T08:23:09;101009.34;;;7.78;67.82
65553;BME280;52465;51.560;14.368;2023-03-16T08:25:39;100963.78;;;7.50;67.19
65553;BME280;52465;51.560;14.368;2023-03-16T08:28:05;101001.66;;;7.77;67.58
65553;BME280;52465;51.560;14.368;2023-03-16T08:30:33;100988.16;;;7.72;67.48
65553;BME280;52465;51.560;14.368;2023-03-16T08:32:59;100999.53;;;7.82;67.50
65553;BME280;52465;51.560;14.368;2023-03-16T08:35:27;100993.16;;;7.75;67.27
65553;BME280;52465;51.560;14.368;2023-03-16T08:37:54;101006.38;;;7.83;68.09
65553;BME280;52465;51.560;14.368;2023-03-16T08:40:21;101006.25;;;7.84;67.52
65553;BME280;52465;51.560;14.368;2023-03-16T08:42:47;101006.16;;;7.86;67.03
65553;BME280;52465;51.560;14.368;2023-03-16T08:45:15;101002.59;;;7.87;67.80
65553;BME280;52465;51.560;14.368;2023-03-16T08:47:42;100980.22;;;7.73;67.33
65553;BME280;52465;51.560;14.368;2023-03-16T08:50:11;101013.84;;;7.87;67.02
65553;BME280;52465;51.560;14.368;2023-03-16T08:52:39;100999.66;;;7.80;66.95
65553;BME280;52465;51.560;14.368;2023-03-16T08:55:06;101022.25;;;7.91;67.78
65553;BME280;52465;51.560;14.368;2023-03-16T08:57:32;101012.56;;;7.82;67.12
65553;BME280;52465;51.560;14.368;2023-03-16T08:59:58;101019.78;;;7.89;67.44
65553;BME280;52465;51.560;14.368;2023-03-16T09:02:24;101009.59;;;7.86;67.20
65553;BME280;52465;51.560;14.368;2023-03-16T09:04:50;101026.28;;;7.95;67.27
65553;BME280;52465;51.560;14.368;2023-03-16T09:07:17;101020.25;;;7.94;67.95
65553;BME280;52465;51.560;14.368;2023-03-16T09:09:46;100983.19;;;7.68;67.17
65553;BME280;52465;51.560;14.368;2023-03-16T09:12:12;100984.72;;;7.71;67.20
65553;BME280;52465;51.560;14.368;2023-03-16T09:14:38;101006.88;;;7.88;67.12
65553;BME280;52465;51.560;14.368;2023-03-16T09:17:05;101017.75;;;7.93;67.18
65553;BME280;52465;51.560;14.368;2023-03-16T09:19:32;101027.69;;;7.99;67.03
65553;BME280;52465;51.560;14.368;2023-03-16T09:22:00;101000.09;;;7.85;67.14
65553;BME280;52465;51.560;14.368;2023-03-16T09:24:26;101023.09;;;8.03;67.40
65553;BME280;52465;51.560;14.368;2023-03-16T09:26:52;101012.28;;;7.96;67.56
65553;BME280;52465;51.560;14.368;2023-03-16T09:29:38;101022.97;;;8.04;67.61
65553;BME280;52465;51.560;14.368;2023-03-16T09:32:06;101032.44;;;8.05;67.29
65553;BME280;52465;51.560;14.368;2023-03-16T09:34:32;101009.34;;;7.89;67.29
65553;BME280;52465;51.560;14.368;2023-03-16T09:37:01;101026.53;;;8.03;67.74
65553;BME280;52465;51.560;14.368;2023-03-16T09:39:27;101014.66;;;7.99;67.44
65553;BME280;52465;51.560;14.368;2023-03-16T09:44:38;101032.06;;;8.10;67.30
65553;BME280;52465;51.560;14.368;2023-03-16T09:47:10;101025.06;;;8.10;67.73
65553;BME280;52465;51.560;14.368;2023-03-16T09:49:44;101038.81;;;8.12;67.23
65553;BME280;52465;51.560;14.368;2023-03-16T09:52:39;101032.53;;;8.15;67.35
65553;BME280;52465;51.560;14.368;2023-03-16T09:55:22;101010.03;;;8.03;67.46
65553;BME280;52465;51.560;14.368;2023-03-16T09:57:51;101037.41;;;8.19;68.03
65553;BME280;52465;51.560;14.368;2023-03-16T10:00:23;101019.16;;;8.08;67.23
65553;BME280;52465;51.560;14.368;2023-03-16T10:05:59;101029.94;;;8.15;67.05
65553;BME280;52465;51.560;14.368;2023-03-16T10:08:38;101039.75;;;8.22;66.98
65553;BME280;52465;51.560;14.368;2023-03-16T10:13:58;101035.13;;;8.26;66.75
65553;BME280;52465;51.560;14.368;2023-03-16T10:16:47;101038.44;;;8.28;66.91
65553;BME280;52465;51.560;14.368;2023-03-16T10:19:38;101040.06;;;8.29;67.30
65553;BME280;52465;51.560;14.368;2023-03-16T10:22:19;101028.13;;;8.27;66.94
65553;BME280;52465;51.560;14.368;2023-03-16T10:27:36;101016.03;;;8.26;67.24
65553;BME280;52465;51.560;14.368;2023-03-16T10:30:13;101013.44;;;8.26;67.44
65553;BME280;52465;51.560;14.368;2023-03-16T10:32:43;101022.41;;;8.33;66.81
65553;BME280;52465;51.560;14.368;2023-03-16T10:35:37;101025.50;;;8.38;67.37
65553;BME280;52465;51.560;14.368;2023-03-16T10:38:41;101020.28;;;8.38;67.34
65553;BME280;52465;51.560;14.368;2023-03-16T10:43:51;101025.16;;;8.42;67.56
65553;BME280;52465;51.560;14.368;2023-03-16T10:46:17;101004.66;;;8.27;67.30
65553;BME280;52465;51.560;14.368;2023-03-16T10:48:57;101008.06;;;8.38;67.13
65553;BME280;52465;51.560;14.368;2023-03-16T10:51:31;101005.34;;;8.40;67.34
65553;BME280;52465;51.560;14.368;2023-03-16T10:54:17;101016.81;;;8.48;67.39
65553;BME280;52465;51.560;14.368;2023-03-16T10:56:47;100985.66;;;8.36;67.21
65553;BME280;52465;51.560;14.368;2023-03-16T11:02:16;100993.84;;;8.42;66.60
65553;BME280;52465;51.560;14.368;2023-03-16T11:04:43;101009.31;;;8.55;66.77
65553;BME280;52465;51.560;14.368;2023-03-16T11:07:18;101004.78;;;8.57;67.12
65553;BME280;52465;51.560;14.368;2023-03-16T11:09:47;100999.72;;;8.56;66.76
65553;BME280;52465;51.560;14.368;2023-03-16T11:12:22;100986.06;;;8.52;66.84
65553;BME280;52465;51.560;14.368;2023-03-16T11:20:48;100969.34;;;8.55;67.14
65553;BME280;52465;51.560;14.368;2023-03-16T11:23:15;100975.13;;;8.58;67.03
65553;BME280;52465;51.560;14.368;2023-03-16T11:25:46;100996.09;;;8.68;67.22
65553;BME280;52465;51.560;14.368;2023-03-16T11:28:23;100984.69;;;8.69;66.57
65553;BME280;52465;51.560;14.368;2023-03-16T11:31:21;100981.16;;;8.70;66.64
65553;BME280;52465;51.560;14.368;2023-03-16T11:33:56;100939.38;;;8.49;66.42
65553;BME280;52465;51.560;14.368;2023-03-16T11:36:37;100985.03;;;8.76;66.17
65553;BME280;52465;51.560;14.368;2023-03-16T11:39:30;100982.28;;;8.77;66.83
65553;BME280;52465;51.560;14.368;2023-03-16T11:44:41;100981.09;;;8.81;66.58
65553;BME280;52465;51.560;14.368;2023-03-16T11:47:40;100976.69;;;8.82;66.68
65553;BME280;52465;51.560;14.368;2023-03-16T11:52:42;100976.28;;;8.86;66.41
65553;BME280;52465;51.560;14.368;2023-03-16T11:58:16;100962.53;;;8.84;66.51
65553;BME280;52465;51.560;14.368;2023-03-16T12:01:00;100956.34;;;8.85;66.88
65553;BME280;52465;51.560;14.368;2023-03-16T12:06:49;100948.00;;;8.91;66.24
65553;BME280;52465;51.560;14.368;2023-03-16T12:12:39;100942.69;;;8.93;65.96
65553;BME280;52465;51.560;14.368;2023-03-16T12:18:01;100917.31;;;8.84;66.18
65553;BME280;52465;51.560;14.368;2023-03-16T12:20:45;100939.78;;;8.96;66.72
65553;BME280;52465;51.560;14.368;2023-03-16T12:23:18;100917.91;;;8.87;66.36
65553;BME280;52465;51.560;14.368;2023-03-16T12:25:50;100931.94;;;8.96;66.56
65553;BME280;52465;51.560;14.368;2023-03-16T12:28:22;100930.88;;;8.98;66.57
65553;BME280;52465;51.560;14.368;2023-03-16T12:51:37;100904.06;;;8.96;66.75
65553;BME280;52465;51.560;14.368;2023-03-16T12:54:04;100911.94;;;9.06;67.02
65553;BME280;52465;51.560;14.368;2023-03-16T12:56:33;100913.78;;;9.15;66.91
65553;BME280;52465;51.560;14.368;2023-03-16T12:59:02;100920.25;;;9.21;66.34
65553;BME280;52465;51.560;14.368;2023-03-16T13:01:40;100894.09;;;9.11;66.37
65553;BME280;52465;51.560;14.368;2023-03-16T13:04:13;100911.31;;;9.23;66.29
65553;BME280;52465;51.560;14.368;2023-03-16T13:06:43;100915.59;;;9.24;66.26
65553;BME280;52465;51.560;14.368;2023-03-16T13:09:17;100919.84;;;9.25;66.42
65553;BME280;52465;51.560;14.368;2023-03-16T13:11:46;100885.69;;;9.08;65.78
65553;BME280;52465;51.560;14.368;2023-03-16T13:14:32;100910.25;;;9.26;65.72
65553;BME280;52465;51.560;14.368;2023-03-16T13:17:22;100896.75;;;9.21;66.12
65553;BME280;52465;51.560;14.368;2023-03-16T13:22:49;100907.50;;;9.27;65.56
65553;BME280;52465;51.560;14.368;2023-03-16T13:25:38;100898.84;;;9.27;65.58
65553;BME280;52465;51.560;14.368;2023-03-16T13:28:06;100861.78;;;9.12;65.74
65553;BME280;52465;51.560;14.368;2023-03-16T13:30:34;100863.72;;;9.10;65.46
65553;BME280;52465;51.560;14.368;2023-03-16T13:33:13;100894.44;;;9.27;65.75
65553;BME280;52465;51.560;14.368;2023-03-16T13:35:39;100892.91;;;9.25;65.97
65553;BME280;52465;51.560;14.368;2023-03-16T13:38:16;100893.47;;;9.28;65.43
65553;BME280;52465;51.560;14.368;2023-03-16T13:40:49;100885.63;;;9.28;65.71
65553;BME280;52465;51.560;14.368;2023-03-16T13:43:37;100892.50;;;9.30;65.81
65553;BME280;52465;51.560;14.368;2023-03-16T13:46:14;100883.03;;;9.28;66.20
65553;BME280;52465;51.560;14.368;2023-03-16T13:48:41;100867.06;;;9.22;66.02
65553;BME280;52465;51.560;14.368;2023-03-16T13:51:13;100876.00;;;9.29;65.52
65553;BME280;52465;51.560;14.368;2023-03-16T13:53:43;100831.66;;;9.08;65.88
65553;BME280;52465;51.560;14.368;2023-03-16T13:56:20;100869.56;;;9.33;65.92
65553;BME280;52465;51.560;14.368;2023-03-16T13:58:48;100854.41;;;9.27;65.99
65553;BME280;52465;51.560;14.368;2023-03-16T14:01:23;100866.94;;;9.33;65.86
65553;BME280;52465;51.560;14.368;2023-03-16T14:04:05;100836.09;;;9.17;65.51
65553;BME280;52465;51.560;14.368;2023-03-16T14:06:36;100854.72;;;9.34;65.83
65553;BME280;52465;51.560;14.368;2023-03-16T14:09:13;100857.31;;;9.34;65.73
65553;BME280;52465;51.560;14.368;2023-03-16T14:11:40;100840.38;;;9.28;65.88
65553;BME280;52465;51.560;14.368;2023-03-16T14:16:29;100842.44;;;9.24;65.59
65553;BME280;52465;51.560;14.368;2023-03-16T14:19:07;100856.34;;;9.35;65.41
65553;BME280;52465;51.560;14.368;2023-03-16T14:21:42;100856.34;;;9.35;65.42
65553;BME280;52465;51.560;14.368;2023-03-16T14:24:29;100852.09;;;9.34;65.30